ASA67 PAJN-PANC
Flight info
| Callsign | ASA67 |
|---|---|
| Flight time | 1h 25m |
| Altitude | 34000 |
| Route | CHLKT2 ALATY JOH WITTI5 |
| Aircraft | B737/M-SDE2E3FGHIRWXY/LB1 |
Departure
| Time | 2026-05-05 04:59 |
|---|---|
| Airport | Juneau International Airport (PAJN) |
Arrival
| Time | 2026-05-05 06:24 |
|---|---|
| Airport | Ted Stevens Anchorage International Airport (PANC) |
| Time | Latitude | Longitude | Altitude | Speed | Heading |
|---|---|---|---|---|---|
| 2026-05-05 04:23 | 58.35847 | -134.58429 | 33 ft | 0 kts | 48° |
| 2026-05-05 04:50 | 58.35845 | -134.58434 | 32 ft | 3 kts | 49° |
| 2026-05-05 04:50 | 58.35828 | -134.58474 | 33 ft | 4 kts | 58° |
| 2026-05-05 04:50 | 58.35816 | -134.58518 | 32 ft | 3 kts | 69° |
| 2026-05-05 04:51 | 58.35809 | -134.58558 | 33 ft | 4 kts | 79° |
| 2026-05-05 04:51 | 58.35807 | -134.58608 | 33 ft | 4 kts | 97° |
| 2026-05-05 04:51 | 58.35813 | -134.58658 | 33 ft | 4 kts | 104° |
| 2026-05-05 04:51 | 58.35814 | -134.58670 | 33 ft | 0 kts | 103° |
| 2026-05-05 04:53 | 58.35811 | -134.58640 | 31 ft | 7 kts | 103° |
| 2026-05-05 04:54 | 58.35792 | -134.58489 | 33 ft | 15 kts | 103° |
| 2026-05-05 04:54 | 58.35762 | -134.58318 | 31 ft | 12 kts | 136° |
| 2026-05-05 04:54 | 58.35693 | -134.58250 | 31 ft | 13 kts | 111° |
| 2026-05-05 04:54 | 58.35665 | -134.58046 | 32 ft | 18 kts | 105° |
| 2026-05-05 04:55 | 58.35632 | -134.57811 | 33 ft | 18 kts | 104° |
| 2026-05-05 04:55 | 58.35600 | -134.57586 | 33 ft | 17 kts | 105° |
| 2026-05-05 04:55 | 58.35570 | -134.57367 | 33 ft | 17 kts | 104° |
| 2026-05-05 04:55 | 58.35538 | -134.57140 | 33 ft | 19 kts | 104° |
| 2026-05-05 04:56 | 58.35501 | -134.56876 | 32 ft | 22 kts | 105° |
| 2026-05-05 04:56 | 58.35462 | -134.56595 | 31 ft | 22 kts | 104° |
| 2026-05-05 04:56 | 58.35424 | -134.56320 | 33 ft | 21 kts | 105° |
| 2026-05-05 04:56 | 58.35387 | -134.56053 | 32 ft | 21 kts | 105° |
| 2026-05-05 04:57 | 58.35351 | -134.55794 | 33 ft | 20 kts | 105° |
| 2026-05-05 04:57 | 58.35316 | -134.55544 | 32 ft | 19 kts | 105° |
| 2026-05-05 04:57 | 58.35286 | -134.55335 | 31 ft | 11 kts | 112° |
| 2026-05-05 04:57 | 58.35225 | -134.55287 | 32 ft | 10 kts | 162° |
| 2026-05-05 04:58 | 58.35171 | -134.55317 | 33 ft | 8 kts | 266° |
| 2026-05-05 04:58 | 58.35173 | -134.55335 | 32 ft | 1 kts | 286° |
| 2026-05-05 04:58 | 58.35200 | -134.55520 | 31 ft | 49 kts | 285° |
| 2026-05-05 04:58 | 58.35437 | -134.57212 | 33 ft | 144 kts | 285° |
| 2026-05-05 04:59 | 58.35628 | -134.58569 | 144 ft | 171 kts | 285° |
| 2026-05-05 04:59 | 58.35925 | -134.60899 | 683 ft | 192 kts | 277° |
| 2026-05-05 04:59 | 58.35944 | -134.63509 | 1408 ft | 201 kts | 268° |
| 2026-05-05 04:59 | 58.35909 | -134.67053 | 2292 ft | 214 kts | 270° |
| 2026-05-05 05:00 | 58.35955 | -134.70091 | 2526 ft | 245 kts | 278° |
| 2026-05-05 05:00 | 58.36249 | -134.72260 | 2870 ft | 256 kts | 290° |
| 2026-05-05 05:00 | 58.36871 | -134.75495 | 3645 ft | 263 kts | 290° |
| 2026-05-05 05:00 | 58.37502 | -134.78798 | 4519 ft | 267 kts | 290° |
| 2026-05-05 05:01 | 58.38131 | -134.82147 | 5388 ft | 270 kts | 289° |
| 2026-05-05 05:01 | 58.38761 | -134.85542 | 6276 ft | 274 kts | 289° |
| 2026-05-05 05:01 | 58.39395 | -134.88994 | 7172 ft | 278 kts | 289° |
| 2026-05-05 05:01 | 58.40035 | -134.92503 | 8085 ft | 283 kts | 289° |
| 2026-05-05 05:02 | 58.40681 | -134.96070 | 9031 ft | 286 kts | 288° |
| 2026-05-05 05:02 | 58.41333 | -134.99677 | 9984 ft | 289 kts | 288° |
| 2026-05-05 05:02 | 58.41998 | -135.03368 | 10659 ft | 304 kts | 287° |
| 2026-05-05 05:02 | 58.42714 | -135.07365 | 10944 ft | 330 kts | 287° |
| 2026-05-05 05:03 | 58.43550 | -135.11522 | 11640 ft | 341 kts | 295° |
| 2026-05-05 05:03 | 58.44764 | -135.15450 | 12538 ft | 345 kts | 300° |
| 2026-05-05 05:03 | 58.46081 | -135.19299 | 13457 ft | 349 kts | 300° |
| 2026-05-05 05:03 | 58.47435 | -135.23186 | 14342 ft | 354 kts | 300° |
| 2026-05-05 05:04 | 58.48782 | -135.27079 | 15180 ft | 358 kts | 300° |
| 2026-05-05 05:04 | 58.50160 | -135.31104 | 16009 ft | 363 kts | 299° |
| 2026-05-05 05:04 | 58.51537 | -135.35171 | 16901 ft | 366 kts | 298° |
| 2026-05-05 05:04 | 58.52918 | -135.39287 | 17608 ft | 369 kts | 298° |
| 2026-05-05 05:05 | 58.54308 | -135.43455 | 18414 ft | 374 kts | 297° |
| 2026-05-05 05:05 | 58.55715 | -135.47691 | 19179 ft | 379 kts | 297° |
| 2026-05-05 05:05 | 58.57132 | -135.51967 | 19988 ft | 381 kts | 297° |
| 2026-05-05 05:05 | 58.58556 | -135.56273 | 20772 ft | 384 kts | 297° |
| 2026-05-05 05:06 | 58.59986 | -135.60616 | 21457 ft | 388 kts | 297° |
| 2026-05-05 05:06 | 58.61432 | -135.65014 | 22172 ft | 391 kts | 297° |
| 2026-05-05 05:06 | 58.62890 | -135.69449 | 22881 ft | 395 kts | 297° |
| 2026-05-05 05:06 | 58.64358 | -135.73925 | 23562 ft | 398 kts | 297° |
| 2026-05-05 05:07 | 58.65837 | -135.78438 | 24234 ft | 401 kts | 297° |
| 2026-05-05 05:07 | 58.67324 | -135.82987 | 24847 ft | 403 kts | 297° |
| 2026-05-05 05:07 | 58.68820 | -135.87574 | 25420 ft | 407 kts | 297° |
| 2026-05-05 05:07 | 58.70324 | -135.92197 | 25972 ft | 410 kts | 296° |
| 2026-05-05 05:08 | 58.71842 | -135.96870 | 26539 ft | 413 kts | 296° |
| 2026-05-05 05:08 | 58.73369 | -136.01581 | 27069 ft | 416 kts | 296° |
| 2026-05-05 05:08 | 58.74909 | -136.06340 | 27521 ft | 421 kts | 296° |
| 2026-05-05 05:08 | 58.76465 | -136.11159 | 27943 ft | 426 kts | 296° |
| 2026-05-05 05:09 | 58.78034 | -136.16023 | 28409 ft | 428 kts | 296° |
| 2026-05-05 05:09 | 58.79608 | -136.20918 | 28892 ft | 431 kts | 296° |
| 2026-05-05 05:09 | 58.81190 | -136.25849 | 29341 ft | 434 kts | 295° |
| 2026-05-05 05:09 | 58.82781 | -136.30825 | 29764 ft | 437 kts | 295° |
| 2026-05-05 05:10 | 58.84381 | -136.35837 | 30194 ft | 440 kts | 295° |
| 2026-05-05 05:10 | 58.85987 | -136.40875 | 30634 ft | 441 kts | 295° |
| 2026-05-05 05:10 | 58.87591 | -136.45911 | 31193 ft | 438 kts | 295° |
| 2026-05-05 05:10 | 58.89175 | -136.50892 | 31827 ft | 434 kts | 295° |
| 2026-05-05 05:11 | 58.90751 | -136.55856 | 32342 ft | 431 kts | 294° |
| 2026-05-05 05:11 | 58.92311 | -136.60788 | 32795 ft | 430 kts | 294° |
| 2026-05-05 05:11 | 58.93868 | -136.65727 | 33237 ft | 429 kts | 294° |
| 2026-05-05 05:11 | 58.95417 | -136.70650 | 33692 ft | 426 kts | 294° |
| 2026-05-05 05:12 | 58.96959 | -136.75560 | 34013 ft | 428 kts | 293° |
| 2026-05-05 05:12 | 59.00064 | -136.85499 | 33978 ft | 430 kts | 293° |
| 2026-05-05 05:13 | 59.03137 | -136.95339 | 34006 ft | 425 kts | 293° |
| 2026-05-05 05:13 | 59.06196 | -137.05201 | 34000 ft | 427 kts | 293° |
| 2026-05-05 05:14 | 59.09258 | -137.15109 | 33997 ft | 427 kts | 293° |
| 2026-05-05 05:14 | 59.12308 | -137.25017 | 33983 ft | 426 kts | 293° |
| 2026-05-05 05:15 | 59.15342 | -137.34913 | 33992 ft | 426 kts | 292° |
| 2026-05-05 05:15 | 59.18369 | -137.44835 | 33993 ft | 426 kts | 292° |
| 2026-05-05 05:16 | 59.21390 | -137.54776 | 33997 ft | 427 kts | 292° |
| 2026-05-05 05:16 | 59.24394 | -137.64707 | 34002 ft | 428 kts | 292° |
| 2026-05-05 05:17 | 59.27414 | -137.74725 | 33978 ft | 426 kts | 292° |
| 2026-05-05 05:17 | 59.30411 | -137.84710 | 33992 ft | 426 kts | 292° |
| 2026-05-05 05:18 | 59.33403 | -137.94735 | 33986 ft | 426 kts | 292° |
| 2026-05-05 05:18 | 59.36388 | -138.04769 | 33987 ft | 426 kts | 291° |
| 2026-05-05 05:19 | 59.39366 | -138.14819 | 33988 ft | 426 kts | 291° |
| 2026-05-05 05:19 | 59.42298 | -138.24954 | 33982 ft | 424 kts | 286° |
| 2026-05-05 05:20 | 59.44221 | -138.35710 | 33980 ft | 416 kts | 279° |
| 2026-05-05 05:20 | 59.45870 | -138.46636 | 33969 ft | 418 kts | 278° |
| 2026-05-05 05:21 | 59.47549 | -138.57586 | 33965 ft | 418 kts | 279° |
| 2026-05-05 05:21 | 59.49268 | -138.68520 | 33966 ft | 419 kts | 279° |
| 2026-05-05 05:22 | 59.51003 | -138.79471 | 33974 ft | 419 kts | 279° |
| 2026-05-05 05:22 | 59.52733 | -138.90422 | 33970 ft | 419 kts | 278° |
| 2026-05-05 05:23 | 59.54455 | -139.01399 | 33959 ft | 420 kts | 278° |
| 2026-05-05 05:23 | 59.56174 | -139.12429 | 33967 ft | 421 kts | 278° |
| 2026-05-05 05:24 | 59.57883 | -139.23463 | 33954 ft | 420 kts | 278° |
| 2026-05-05 05:24 | 59.59576 | -139.34459 | 33966 ft | 418 kts | 278° |
| 2026-05-05 05:25 | 59.61256 | -139.45446 | 33974 ft | 418 kts | 278° |
| 2026-05-05 05:25 | 59.62913 | -139.56365 | 33973 ft | 418 kts | 277° |
| 2026-05-05 05:26 | 59.64573 | -139.67367 | 33971 ft | 418 kts | 277° |
| 2026-05-05 05:26 | 59.66206 | -139.78267 | 33970 ft | 418 kts | 277° |
| 2026-05-05 05:27 | 59.67608 | -139.87689 | 33976 ft | 418 kts | 277° |
| 2026-05-05 05:27 | 59.70001 | -140.03903 | 33968 ft | 418 kts | 277° |
| 2026-05-05 05:28 | 59.71627 | -140.14971 | 33964 ft | 419 kts | 277° |
| 2026-05-05 05:28 | 59.73122 | -140.25250 | 33960 ft | 419 kts | 277° |
| 2026-05-05 05:29 | 59.74730 | -140.36344 | 33962 ft | 419 kts | 277° |
| 2026-05-05 05:29 | 59.76332 | -140.47478 | 33955 ft | 420 kts | 276° |
| 2026-05-05 05:30 | 59.77926 | -140.58633 | 33944 ft | 420 kts | 276° |
| 2026-05-05 05:30 | 59.79510 | -140.69808 | 33938 ft | 420 kts | 276° |
| 2026-05-05 05:31 | 59.81086 | -140.81002 | 33934 ft | 421 kts | 276° |
| 2026-05-05 05:31 | 59.82655 | -140.92224 | 33922 ft | 422 kts | 276° |
| 2026-05-05 05:32 | 59.84215 | -141.03453 | 33930 ft | 422 kts | 276° |
| 2026-05-05 05:32 | 59.85757 | -141.14640 | 33914 ft | 422 kts | 275° |
| 2026-05-05 05:33 | 59.86757 | -141.21939 | 33920 ft | 422 kts | 275° |
| 2026-05-05 05:33 | 59.87970 | -141.30832 | 33907 ft | 423 kts | 275° |
| 2026-05-05 05:34 | 59.89502 | -141.42137 | 33906 ft | 423 kts | 275° |
| 2026-05-05 05:34 | 59.91022 | -141.53439 | 33902 ft | 423 kts | 275° |
| 2026-05-05 05:35 | 59.92534 | -141.64765 | 33896 ft | 423 kts | 275° |
| 2026-05-05 05:35 | 59.94033 | -141.76072 | 33895 ft | 423 kts | 274° |
| 2026-05-05 05:36 | 59.94909 | -141.82720 | 33888 ft | 423 kts | 274° |
| 2026-05-05 05:36 | 59.96393 | -141.94050 | 33887 ft | 422 kts | 274° |
| 2026-05-05 05:37 | 59.97868 | -142.05394 | 33890 ft | 422 kts | 274° |
| 2026-05-05 05:37 | 59.99332 | -142.16734 | 33897 ft | 421 kts | 274° |
| 2026-05-05 05:38 | 60.00785 | -142.28078 | 33899 ft | 421 kts | 274° |
| 2026-05-05 05:38 | 60.02217 | -142.39351 | 33899 ft | 421 kts | 274° |
| 2026-05-05 05:39 | 60.03659 | -142.50782 | 33893 ft | 421 kts | 274° |
| 2026-05-05 05:39 | 60.05070 | -142.62057 | 33889 ft | 421 kts | 274° |
| 2026-05-05 05:40 | 60.06482 | -142.73424 | 33887 ft | 421 kts | 273° |
| 2026-05-05 05:40 | 60.07884 | -142.84793 | 33887 ft | 420 kts | 273° |
| 2026-05-05 05:41 | 60.09275 | -142.96174 | 33885 ft | 421 kts | 273° |
| 2026-05-05 05:41 | 60.10657 | -143.07567 | 33878 ft | 421 kts | 272° |
| 2026-05-05 05:42 | 60.12028 | -143.18953 | 33876 ft | 421 kts | 272° |
| 2026-05-05 05:42 | 60.13391 | -143.30366 | 33877 ft | 421 kts | 272° |
| 2026-05-05 05:43 | 60.14743 | -143.41787 | 33880 ft | 421 kts | 272° |
| 2026-05-05 05:43 | 60.16087 | -143.53222 | 33887 ft | 421 kts | 272° |
| 2026-05-05 05:44 | 60.17422 | -143.64677 | 33888 ft | 421 kts | 271° |
| 2026-05-05 05:44 | 60.18747 | -143.76147 | 33882 ft | 422 kts | 271° |
| 2026-05-05 05:45 | 60.20063 | -143.87626 | 33878 ft | 422 kts | 271° |
| 2026-05-05 05:45 | 60.21370 | -143.99130 | 33888 ft | 422 kts | 271° |
| 2026-05-05 05:46 | 60.22669 | -144.10659 | 33878 ft | 423 kts | 271° |
| 2026-05-05 05:46 | 60.23960 | -144.22201 | 33874 ft | 422 kts | 271° |
| 2026-05-05 05:47 | 60.25238 | -144.33733 | 33871 ft | 421 kts | 271° |
| 2026-05-05 05:47 | 60.26495 | -144.45169 | 33874 ft | 421 kts | 271° |
| 2026-05-05 05:48 | 60.27749 | -144.56690 | 33889 ft | 421 kts | 270° |
| 2026-05-05 05:48 | 60.28994 | -144.68231 | 33884 ft | 423 kts | 270° |
| 2026-05-05 05:49 | 60.30234 | -144.79827 | 33888 ft | 423 kts | 270° |
| 2026-05-05 05:49 | 60.31466 | -144.91444 | 33877 ft | 424 kts | 270° |
| 2026-05-05 05:50 | 60.32492 | -145.01199 | 33876 ft | 424 kts | 270° |
| 2026-05-05 05:50 | 60.33701 | -145.12786 | 33885 ft | 425 kts | 270° |
| 2026-05-05 05:51 | 60.34908 | -145.24470 | 33888 ft | 426 kts | 270° |
| 2026-05-05 05:51 | 60.36110 | -145.36210 | 33889 ft | 427 kts | 270° |
| 2026-05-05 05:52 | 60.37305 | -145.47991 | 33891 ft | 429 kts | 269° |
| 2026-05-05 05:52 | 60.38493 | -145.59813 | 33890 ft | 430 kts | 269° |
| 2026-05-05 05:53 | 60.39672 | -145.71661 | 33892 ft | 431 kts | 269° |
| 2026-05-05 05:53 | 60.40846 | -145.83573 | 33889 ft | 432 kts | 269° |
| 2026-05-05 05:54 | 60.42009 | -145.95488 | 33888 ft | 432 kts | 269° |
| 2026-05-05 05:54 | 60.43165 | -146.07442 | 33896 ft | 433 kts | 269° |
| 2026-05-05 05:55 | 60.44311 | -146.19417 | 33898 ft | 433 kts | 269° |
| 2026-05-05 05:55 | 60.45447 | -146.31413 | 33910 ft | 434 kts | 269° |
| 2026-05-05 05:56 | 60.46575 | -146.43445 | 33894 ft | 435 kts | 269° |
| 2026-05-05 05:56 | 60.47694 | -146.55471 | 33885 ft | 434 kts | 268° |
| 2026-05-05 05:57 | 60.49107 | -146.67404 | 33892 ft | 444 kts | 276° |
| 2026-05-05 05:57 | 60.51161 | -146.79383 | 33877 ft | 447 kts | 278° |
| 2026-05-05 05:58 | 60.53195 | -146.91040 | 33874 ft | 446 kts | 277° |
| 2026-05-05 05:58 | 60.55181 | -147.02936 | 33882 ft | 445 kts | 276° |
| 2026-05-05 05:59 | 60.57121 | -147.14887 | 33873 ft | 445 kts | 276° |
| 2026-05-05 05:59 | 60.59044 | -147.26865 | 33860 ft | 446 kts | 276° |
| 2026-05-05 06:00 | 60.60966 | -147.38924 | 33309 ft | 451 kts | 276° |
| 2026-05-05 06:00 | 60.61931 | -147.44998 | 32649 ft | 450 kts | 276° |
| 2026-05-05 06:00 | 60.62894 | -147.51070 | 31983 ft | 449 kts | 276° |
| 2026-05-05 06:01 | 60.63851 | -147.57096 | 31450 ft | 445 kts | 276° |
| 2026-05-05 06:01 | 60.64795 | -147.63070 | 30876 ft | 441 kts | 276° |
| 2026-05-05 06:01 | 60.65728 | -147.68999 | 30325 ft | 437 kts | 276° |
| 2026-05-05 06:01 | 60.66649 | -147.74885 | 29771 ft | 434 kts | 276° |
| 2026-05-05 06:02 | 60.67558 | -147.80729 | 29218 ft | 430 kts | 276° |
| 2026-05-05 06:02 | 60.68455 | -147.86515 | 28655 ft | 427 kts | 276° |
| 2026-05-05 06:02 | 60.69346 | -147.92291 | 28098 ft | 424 kts | 276° |
| 2026-05-05 06:02 | 60.70228 | -147.98026 | 27519 ft | 422 kts | 277° |
| 2026-05-05 06:03 | 60.71103 | -148.03716 | 26955 ft | 420 kts | 277° |
| 2026-05-05 06:03 | 60.71962 | -148.09322 | 26369 ft | 418 kts | 278° |
| 2026-05-05 06:03 | 60.72826 | -148.14978 | 25811 ft | 416 kts | 278° |
| 2026-05-05 06:03 | 60.73695 | -148.20677 | 25230 ft | 413 kts | 278° |
| 2026-05-05 06:04 | 60.74530 | -148.26186 | 24615 ft | 412 kts | 278° |
| 2026-05-05 06:04 | 60.75381 | -148.31881 | 23931 ft | 413 kts | 279° |
| 2026-05-05 06:04 | 60.76207 | -148.37422 | 23352 ft | 412 kts | 279° |
| 2026-05-05 06:04 | 60.77039 | -148.43016 | 22807 ft | 410 kts | 279° |
| 2026-05-05 06:05 | 60.77865 | -148.48580 | 22238 ft | 408 kts | 280° |
| 2026-05-05 06:05 | 60.78683 | -148.54104 | 21700 ft | 405 kts | 280° |
| 2026-05-05 06:05 | 60.79496 | -148.59615 | 21117 ft | 403 kts | 280° |
| 2026-05-05 06:05 | 60.80301 | -148.65089 | 20585 ft | 400 kts | 280° |
| 2026-05-05 06:06 | 60.81097 | -148.70525 | 20050 ft | 397 kts | 280° |
| 2026-05-05 06:06 | 60.81888 | -148.75946 | 19465 ft | 396 kts | 280° |
| 2026-05-05 06:06 | 60.82672 | -148.81340 | 18934 ft | 394 kts | 281° |
| 2026-05-05 06:06 | 60.83453 | -148.86711 | 18396 ft | 393 kts | 280° |
| 2026-05-05 06:07 | 60.84228 | -148.92075 | 17762 ft | 390 kts | 281° |
| 2026-05-05 06:07 | 60.84990 | -148.97364 | 17261 ft | 383 kts | 281° |
| 2026-05-05 06:07 | 60.85738 | -149.02561 | 16841 ft | 376 kts | 280° |
| 2026-05-05 06:07 | 60.86474 | -149.07694 | 16308 ft | 374 kts | 280° |
| 2026-05-05 06:08 | 60.87202 | -149.12795 | 15777 ft | 371 kts | 281° |
| 2026-05-05 06:08 | 60.87925 | -149.17878 | 15217 ft | 371 kts | 281° |
| 2026-05-05 06:08 | 60.88667 | -149.22943 | 14729 ft | 372 kts | 285° |
| 2026-05-05 06:08 | 60.89661 | -149.27876 | 14175 ft | 372 kts | 291° |
| 2026-05-05 06:09 | 60.90771 | -149.32583 | 13643 ft | 362 kts | 291° |
| 2026-05-05 06:09 | 60.91859 | -149.37165 | 13142 ft | 352 kts | 291° |
| 2026-05-05 06:09 | 60.92944 | -149.41616 | 12642 ft | 344 kts | 292° |
| 2026-05-05 06:09 | 60.93985 | -149.45981 | 12141 ft | 336 kts | 291° |
| 2026-05-05 06:10 | 60.94971 | -149.50300 | 11658 ft | 332 kts | 290° |
| 2026-05-05 06:10 | 60.95941 | -149.54621 | 11171 ft | 334 kts | 291° |
| 2026-05-05 06:10 | 60.96913 | -149.58952 | 10639 ft | 330 kts | 291° |
| 2026-05-05 06:10 | 60.97865 | -149.63180 | 10315 ft | 318 kts | 292° |
| 2026-05-05 06:11 | 60.98771 | -149.67203 | 10179 ft | 303 kts | 292° |
| 2026-05-05 06:11 | 60.99644 | -149.71096 | 10047 ft | 296 kts | 292° |
| 2026-05-05 06:11 | 61.00653 | -149.74789 | 9774 ft | 300 kts | 310° |
| 2026-05-05 06:11 | 61.02132 | -149.77707 | 9496 ft | 291 kts | 318° |
| 2026-05-05 06:12 | 61.03617 | -149.80452 | 9142 ft | 289 kts | 318° |
| 2026-05-05 06:12 | 61.05108 | -149.83228 | 8790 ft | 288 kts | 319° |
| 2026-05-05 06:12 | 61.06577 | -149.86021 | 8435 ft | 286 kts | 318° |
| 2026-05-05 06:12 | 61.08034 | -149.88811 | 8082 ft | 285 kts | 317° |
| 2026-05-05 06:13 | 61.09464 | -149.91633 | 7723 ft | 284 kts | 311° |
| 2026-05-05 06:13 | 61.10383 | -149.95181 | 7348 ft | 281 kts | 283° |
| 2026-05-05 06:13 | 61.10554 | -149.99158 | 7028 ft | 276 kts | 268° |
| 2026-05-05 06:13 | 61.10501 | -150.03121 | 6667 ft | 275 kts | 266° |
| 2026-05-05 06:14 | 61.10432 | -150.07053 | 6316 ft | 274 kts | 267° |
| 2026-05-05 06:14 | 61.10367 | -150.10971 | 5964 ft | 272 kts | 267° |
| 2026-05-05 06:14 | 61.10311 | -150.14381 | 5657 ft | 271 kts | 268° |
| 2026-05-05 06:14 | 61.10254 | -150.18150 | 5362 ft | 268 kts | 268° |
| 2026-05-05 06:15 | 61.10206 | -150.21912 | 5252 ft | 257 kts | 268° |
| 2026-05-05 06:15 | 61.10160 | -150.25533 | 5118 ft | 247 kts | 268° |
| 2026-05-05 06:15 | 61.10116 | -150.28890 | 5009 ft | 238 kts | 268° |
| 2026-05-05 06:15 | 61.10058 | -150.32260 | 5002 ft | 232 kts | 267° |
| 2026-05-05 06:16 | 61.09976 | -150.35552 | 4855 ft | 226 kts | 266° |
| 2026-05-05 06:16 | 61.09890 | -150.38793 | 4497 ft | 229 kts | 266° |
| 2026-05-05 06:16 | 61.09808 | -150.41873 | 4241 ft | 229 kts | 267° |
| 2026-05-05 06:16 | 61.09726 | -150.45125 | 4002 ft | 226 kts | 267° |
| 2026-05-05 06:17 | 61.09646 | -150.48372 | 3735 ft | 226 kts | 267° |
| 2026-05-05 06:17 | 61.09647 | -150.51596 | 3457 ft | 224 kts | 283° |
| 2026-05-05 06:17 | 61.10356 | -150.54356 | 3161 ft | 221 kts | 319° |
| 2026-05-05 06:17 | 61.11682 | -150.55773 | 2905 ft | 215 kts | 353° |
| 2026-05-05 06:18 | 61.13136 | -150.55390 | 2583 ft | 213 kts | 27° |
| 2026-05-05 06:18 | 61.14234 | -150.53376 | 2261 ft | 213 kts | 54° |
| 2026-05-05 06:18 | 61.15114 | -150.50921 | 2060 ft | 210 kts | 54° |
| 2026-05-05 06:18 | 61.15964 | -150.48565 | 1994 ft | 199 kts | 54° |
| 2026-05-05 06:19 | 61.16601 | -150.46169 | 1959 ft | 187 kts | 79° |
| 2026-05-05 06:19 | 61.16706 | -150.43548 | 2010 ft | 179 kts | 88° |
| 2026-05-05 06:19 | 61.16775 | -150.40944 | 2013 ft | 181 kts | 89° |
| 2026-05-05 06:19 | 61.16800 | -150.38310 | 2016 ft | 183 kts | 90° |
| 2026-05-05 06:20 | 61.16803 | -150.35694 | 2007 ft | 178 kts | 91° |
| 2026-05-05 06:20 | 61.16800 | -150.33199 | 2000 ft | 170 kts | 91° |
| 2026-05-05 06:20 | 61.16796 | -150.30770 | 1994 ft | 170 kts | 91° |
| 2026-05-05 06:20 | 61.16792 | -150.28315 | 2008 ft | 171 kts | 91° |
| 2026-05-05 06:21 | 61.16789 | -150.25946 | 1992 ft | 156 kts | 91° |
| 2026-05-05 06:21 | 61.16787 | -150.23854 | 1959 ft | 138 kts | 91° |
| 2026-05-05 06:21 | 61.16785 | -150.21894 | 1804 ft | 136 kts | 91° |
| 2026-05-05 06:21 | 61.16782 | -150.19924 | 1618 ft | 137 kts | 91° |
| 2026-05-05 06:22 | 61.16781 | -150.17956 | 1438 ft | 137 kts | 91° |
| 2026-05-05 06:22 | 61.16780 | -150.15979 | 1263 ft | 137 kts | 89° |
| 2026-05-05 06:22 | 61.16780 | -150.14006 | 1076 ft | 137 kts | 89° |
| 2026-05-05 06:22 | 61.16779 | -150.12042 | 895 ft | 136 kts | 89° |
| 2026-05-05 06:23 | 61.16778 | -150.10070 | 716 ft | 138 kts | 89° |
| 2026-05-05 06:23 | 61.16776 | -150.08097 | 521 ft | 138 kts | 89° |
| 2026-05-05 06:23 | 61.16772 | -150.06131 | 370 ft | 134 kts | 88° |
| 2026-05-05 06:23 | 61.16778 | -150.04216 | 204 ft | 132 kts | 88° |
| 2026-05-05 06:24 | 61.16785 | -150.02460 | 138 ft | 107 kts | 90° |
| 2026-05-05 06:24 | 61.16784 | -150.01172 | 134 ft | 72 kts | 90° |
| 2026-05-05 06:24 | 61.16786 | -150.00380 | 131 ft | 38 kts | 90° |
| 2026-05-05 06:24 | 61.16795 | -149.99848 | 128 ft | 35 kts | 79° |
| 2026-05-05 06:25 | 61.16868 | -149.99477 | 123 ft | 13 kts | 62° |
| 2026-05-05 06:25 | 61.16936 | -149.99357 | 128 ft | 13 kts | 28° |
| 2026-05-05 06:25 | 61.17011 | -149.99251 | 120 ft | 15 kts | 37° |
| 2026-05-05 06:25 | 61.17107 | -149.99101 | 117 ft | 19 kts | 39° |
| 2026-05-05 06:26 | 61.17199 | -149.98888 | 110 ft | 20 kts | 50° |
| 2026-05-05 06:26 | 61.17306 | -149.98711 | 110 ft | 20 kts | 33° |
| 2026-05-05 06:26 | 61.17412 | -149.98567 | 108 ft | 12 kts | 25° |
| 2026-05-05 06:26 | 61.17474 | -149.98588 | 107 ft | 2 kts | 345° |
| 2026-05-05 06:27 | 61.17495 | -149.98572 | 107 ft | 4 kts | 52° |
| 2026-05-05 06:27 | 61.17505 | -149.98450 | 109 ft | 2 kts | 82° |
| 2026-05-05 06:27 | 61.17505 | -149.98441 | 109 ft | 1 kts | 82° |
| 2026-05-05 06:28 | 61.17506 | -149.98439 | 109 ft | 0 kts | 82° |